sensor_id;sensor_type;location;lat;lon;timestamp;P1;durP1;ratioP1;P2;durP2;ratioP2
64936;SDS011;51452;47.698;19.050;2023-10-19T00:01:17;12.05;;;6.63;;
64936;SDS011;51452;47.698;19.050;2023-10-19T00:03:43;11.57;;;6.30;;
64936;SDS011;51452;47.698;19.050;2023-10-19T00:06:09;11.57;;;6.70;;
64936;SDS011;51452;47.698;19.050;2023-10-19T00:08:36;11.15;;;6.60;;
64936;SDS011;51452;47.698;19.050;2023-10-19T00:11:06;12.77;;;6.47;;
64936;SDS011;51452;47.698;19.050;2023-10-19T00:13:32;12.00;;;6.68;;
64936;SDS011;51452;47.698;19.050;2023-10-19T00:16:00;11.43;;;6.47;;
64936;SDS011;51452;47.698;19.050;2023-10-19T00:18:36;11.32;;;6.65;;
64936;SDS011;51452;47.698;19.050;2023-10-19T00:21:01;12.85;;;6.63;;
64936;SDS011;51452;47.698;19.050;2023-10-19T00:23:44;11.20;;;6.13;;
64936;SDS011;51452;47.698;19.050;2023-10-19T00:26:12;10.90;;;6.20;;
64936;SDS011;51452;47.698;19.050;2023-10-19T00:28:56;13.45;;;6.28;;
64936;SDS011;51452;47.698;19.050;2023-10-19T00:31:22;11.40;;;6.00;;
64936;SDS011;51452;47.698;19.050;2023-10-19T00:33:52;12.30;;;6.20;;
64936;SDS011;51452;47.698;19.050;2023-10-19T00:36:19;13.48;;;6.68;;
64936;SDS011;51452;47.698;19.050;2023-10-19T00:38:48;13.57;;;6.32;;
64936;SDS011;51452;47.698;19.050;2023-10-19T00:41:25;14.68;;;6.15;;
64936;SDS011;51452;47.698;19.050;2023-10-19T00:43:54;11.05;;;6.90;;
64936;SDS011;51452;47.698;19.050;2023-10-19T00:46:27;11.50;;;7.07;;
64936;SDS011;51452;47.698;19.050;2023-10-19T00:49:09;11.25;;;7.55;;
64936;SDS011;51452;47.698;19.050;2023-10-19T00:51:48;16.92;;;7.75;;
64936;SDS011;51452;47.698;19.050;2023-10-19T00:54:18;19.00;;;7.72;;
64936;SDS011;51452;47.698;19.050;2023-10-19T00:57:00;13.07;;;7.15;;
64936;SDS011;51452;47.698;19.050;2023-10-19T00:59:39;12.98;;;7.38;;
64936;SDS011;51452;47.698;19.050;2023-10-19T01:02:13;17.13;;;8.02;;
64936;SDS011;51452;47.698;19.050;2023-10-19T01:04:52;11.60;;;7.10;;
64936;SDS011;51452;47.698;19.050;2023-10-19T01:07:24;12.55;;;6.93;;
64936;SDS011;51452;47.698;19.050;2023-10-19T01:10:01;16.95;;;7.57;;
64936;SDS011;51452;47.698;19.050;2023-10-19T01:12:31;15.07;;;8.07;;
64936;SDS011;51452;47.698;19.050;2023-10-19T01:15:07;13.30;;;8.20;;
64936;SDS011;51452;47.698;19.050;2023-10-19T01:17:49;14.18;;;8.45;;
64936;SDS011;51452;47.698;19.050;2023-10-19T01:20:19;16.65;;;9.15;;
64936;SDS011;51452;47.698;19.050;2023-10-19T01:23:07;15.98;;;8.77;;
64936;SDS011;51452;47.698;19.050;2023-10-19T01:25:45;14.82;;;8.95;;
64936;SDS011;51452;47.698;19.050;2023-10-19T01:28:15;14.45;;;8.70;;
64936;SDS011;51452;47.698;19.050;2023-10-19T01:30:42;16.73;;;8.95;;
64936;SDS011;51452;47.698;19.050;2023-10-19T01:33:09;16.15;;;8.18;;
64936;SDS011;51452;47.698;19.050;2023-10-19T01:35:43;15.93;;;7.88;;
64936;SDS011;51452;47.698;19.050;2023-10-19T01:38:28;15.70;;;7.93;;
64936;SDS011;51452;47.698;19.050;2023-10-19T01:40:57;14.18;;;8.60;;
64936;SDS011;51452;47.698;19.050;2023-10-19T01:43:26;14.52;;;7.90;;
64936;SDS011;51452;47.698;19.050;2023-10-19T01:45:58;13.20;;;7.35;;
64936;SDS011;51452;47.698;19.050;2023-10-19T01:48:29;11.48;;;7.25;;
64936;SDS011;51452;47.698;19.050;2023-10-19T01:50:59;13.27;;;7.72;;
64936;SDS011;51452;47.698;19.050;2023-10-19T01:53:28;11.63;;;7.60;;
64936;SDS011;51452;47.698;19.050;2023-10-19T01:55:54;12.88;;;8.10;;
64936;SDS011;51452;47.698;19.050;2023-10-19T01:58:26;13.07;;;8.35;;
64936;SDS011;51452;47.698;19.050;2023-10-19T02:00:52;18.23;;;8.40;;
64936;SDS011;51452;47.698;19.050;2023-10-19T02:03:25;12.27;;;8.73;;
64936;SDS011;51452;47.698;19.050;2023-10-19T02:06:00;14.65;;;8.05;;
64936;SDS011;51452;47.698;19.050;2023-10-19T02:08:35;15.50;;;9.00;;
64936;SDS011;51452;47.698;19.050;2023-10-19T02:11:04;14.80;;;8.63;;
64936;SDS011;51452;47.698;19.050;2023-10-19T02:13:41;13.77;;;8.05;;
64936;SDS011;51452;47.698;19.050;2023-10-19T02:16:08;12.38;;;8.50;;
64936;SDS011;51452;47.698;19.050;2023-10-19T02:18:33;17.95;;;9.52;;
64936;SDS011;51452;47.698;19.050;2023-10-19T02:21:03;12.75;;;8.02;;
64936;SDS011;51452;47.698;19.050;2023-10-19T02:23:31;16.73;;;9.52;;
64936;SDS011;51452;47.698;19.050;2023-10-19T02:25:59;15.68;;;9.90;;
64936;SDS011;51452;47.698;19.050;2023-10-19T02:28:25;13.48;;;9.13;;
64936;SDS011;51452;47.698;19.050;2023-10-19T02:30:56;13.97;;;9.33;;
64936;SDS011;51452;47.698;19.050;2023-10-19T02:33:22;18.13;;;9.47;;
64936;SDS011;51452;47.698;19.050;2023-10-19T02:35:47;17.80;;;10.68;;
64936;SDS011;51452;47.698;19.050;2023-10-19T02:38:13;15.35;;;9.45;;
64936;SDS011;51452;47.698;19.050;2023-10-19T02:40:38;18.60;;;10.50;;
64936;SDS011;51452;47.698;19.050;2023-10-19T02:43:04;18.95;;;10.25;;
64936;SDS011;51452;47.698;19.050;2023-10-19T02:45:29;17.08;;;10.32;;
64936;SDS011;51452;47.698;19.050;2023-10-19T02:47:57;17.65;;;11.57;;
64936;SDS011;51452;47.698;19.050;2023-10-19T02:50:23;20.38;;;12.50;;
64936;SDS011;51452;47.698;19.050;2023-10-19T02:52:51;23.50;;;13.50;;
64936;SDS011;51452;47.698;19.050;2023-10-19T02:55:18;25.25;;;14.75;;
64936;SDS011;51452;47.698;19.050;2023-10-19T02:57:45;25.73;;;16.45;;
64936;SDS011;51452;47.698;19.050;2023-10-19T03:00:11;27.00;;;16.30;;
64936;SDS011;51452;47.698;19.050;2023-10-19T03:02:39;25.30;;;16.55;;
64936;SDS011;51452;47.698;19.050;2023-10-19T03:05:05;26.38;;;16.88;;
64936;SDS011;51452;47.698;19.050;2023-10-19T03:07:37;30.85;;;18.33;;
64936;SDS011;51452;47.698;19.050;2023-10-19T03:10:04;30.52;;;17.73;;
64936;SDS011;51452;47.698;19.050;2023-10-19T03:12:30;32.95;;;18.02;;
64936;SDS011;51452;47.698;19.050;2023-10-19T03:14:57;25.80;;;17.05;;
64936;SDS011;51452;47.698;19.050;2023-10-19T03:17:25;24.95;;;16.73;;
64936;SDS011;51452;47.698;19.050;2023-10-19T03:19:50;27.50;;;17.52;;
64936;SDS011;51452;47.698;19.050;2023-10-19T03:22:15;28.45;;;18.73;;
64936;SDS011;51452;47.698;19.050;2023-10-19T03:24:42;30.45;;;16.67;;
64936;SDS011;51452;47.698;19.050;2023-10-19T03:27:11;27.77;;;17.48;;
64936;SDS011;51452;47.698;19.050;2023-10-19T03:29:41;29.58;;;18.33;;
64936;SDS011;51452;47.698;19.050;2023-10-19T03:32:11;28.15;;;19.17;;
64936;SDS011;51452;47.698;19.050;2023-10-19T03:34:40;27.73;;;18.67;;
64936;SDS011;51452;47.698;19.050;2023-10-19T03:37:08;31.35;;;18.73;;
64936;SDS011;51452;47.698;19.050;2023-10-19T03:39:39;30.50;;;18.33;;
64936;SDS011;51452;47.698;19.050;2023-10-19T03:42:05;30.30;;;18.63;;
64936;SDS011;51452;47.698;19.050;2023-10-19T03:44:32;29.20;;;18.20;;
64936;SDS011;51452;47.698;19.050;2023-10-19T03:47:13;24.27;;;15.95;;
64936;SDS011;51452;47.698;19.050;2023-10-19T03:49:43;24.27;;;14.57;;
64936;SDS011;51452;47.698;19.050;2023-10-19T03:52:09;21.97;;;14.60;;
64936;SDS011;51452;47.698;19.050;2023-10-19T03:54:34;25.52;;;14.25;;
64936;SDS011;51452;47.698;19.050;2023-10-19T03:57:16;23.50;;;15.33;;
64936;SDS011;51452;47.698;19.050;2023-10-19T03:59:55;23.93;;;15.43;;
64936;SDS011;51452;47.698;19.050;2023-10-19T04:02:25;25.20;;;15.50;;
64936;SDS011;51452;47.698;19.050;2023-10-19T04:05:03;24.48;;;16.23;;
64936;SDS011;51452;47.698;19.050;2023-10-19T04:07:29;25.13;;;16.52;;
64936;SDS011;51452;47.698;19.050;2023-10-19T04:09:56;28.73;;;17.10;;
64936;SDS011;51452;47.698;19.050;2023-10-19T04:12:23;26.52;;;16.40;;
64936;SDS011;51452;47.698;19.050;2023-10-19T04:14:50;27.03;;;17.57;;
64936;SDS011;51452;47.698;19.050;2023-10-19T04:17:15;26.25;;;17.65;;
64936;SDS011;51452;47.698;19.050;2023-10-19T04:19:41;30.23;;;18.52;;
64936;SDS011;51452;47.698;19.050;2023-10-19T04:22:06;29.80;;;18.90;;
64936;SDS011;51452;47.698;19.050;2023-10-19T04:24:36;33.87;;;18.37;;
64936;SDS011;51452;47.698;19.050;2023-10-19T04:27:01;36.30;;;19.27;;
64936;SDS011;51452;47.698;19.050;2023-10-19T04:29:26;28.87;;;18.63;;
64936;SDS011;51452;47.698;19.050;2023-10-19T04:31:52;31.70;;;19.10;;
64936;SDS011;51452;47.698;19.050;2023-10-19T04:34:21;31.10;;;19.50;;
64936;SDS011;51452;47.698;19.050;2023-10-19T04:36:47;30.10;;;18.63;;
64936;SDS011;51452;47.698;19.050;2023-10-19T04:39:13;32.43;;;19.57;;
64936;SDS011;51452;47.698;19.050;2023-10-19T04:41:39;29.43;;;18.47;;
64936;SDS011;51452;47.698;19.050;2023-10-19T04:44:05;31.30;;;19.23;;
64936;SDS011;51452;47.698;19.050;2023-10-19T04:46:33;28.20;;;17.87;;
64936;SDS011;51452;47.698;19.050;2023-10-19T04:48:59;33.37;;;17.50;;
64936;SDS011;51452;47.698;19.050;2023-10-19T04:51:32;32.07;;;18.30;;
64936;SDS011;51452;47.698;19.050;2023-10-19T04:53:59;29.10;;;18.15;;
64936;SDS011;51452;47.698;19.050;2023-10-19T04:56:25;26.37;;;17.77;;
64936;SDS011;51452;47.698;19.050;2023-10-19T04:58:50;24.97;;;16.40;;
64936;SDS011;51452;47.698;19.050;2023-10-19T05:01:15;24.13;;;16.13;;
64936;SDS011;51452;47.698;19.050;2023-10-19T05:03:41;22.83;;;15.10;;
64936;SDS011;51452;47.698;19.050;2023-10-19T05:06:07;24.70;;;15.03;;
64936;SDS011;51452;47.698;19.050;2023-10-19T05:08:34;25.30;;;15.07;;
64936;SDS011;51452;47.698;19.050;2023-10-19T05:11:01;21.50;;;14.33;;
64936;SDS011;51452;47.698;19.050;2023-10-19T05:13:27;23.97;;;14.80;;
64936;SDS011;51452;47.698;19.050;2023-10-19T05:15:53;21.30;;;13.60;;
64936;SDS011;51452;47.698;19.050;2023-10-19T05:18:20;23.90;;;15.03;;
64936;SDS011;51452;47.698;19.050;2023-10-19T05:20:47;25.53;;;14.73;;
64936;SDS011;51452;47.698;19.050;2023-10-19T05:23:12;25.27;;;14.53;;
64936;SDS011;51452;47.698;19.050;2023-10-19T05:25:41;21.63;;;14.20;;
64936;SDS011;51452;47.698;19.050;2023-10-19T05:28:06;21.77;;;13.83;;
64936;SDS011;51452;47.698;19.050;2023-10-19T05:30:32;24.07;;;13.87;;
64936;SDS011;51452;47.698;19.050;2023-10-19T05:32:59;21.90;;;14.27;;
64936;SDS011;51452;47.698;19.050;2023-10-19T05:35:26;23.37;;;13.87;;
64936;SDS011;51452;47.698;19.050;2023-10-19T05:37:53;24.30;;;14.17;;
64936;SDS011;51452;47.698;19.050;2023-10-19T05:40:20;22.97;;;14.40;;
64936;SDS011;51452;47.698;19.050;2023-10-19T05:42:48;24.43;;;14.63;;
64936;SDS011;51452;47.698;19.050;2023-10-19T05:45:14;26.27;;;15.67;;
64936;SDS011;51452;47.698;19.050;2023-10-19T05:47:41;25.73;;;16.60;;
64936;SDS011;51452;47.698;19.050;2023-10-19T05:50:08;30.73;;;16.93;;
64936;SDS011;51452;47.698;19.050;2023-10-19T05:52:38;27.77;;;16.07;;
64936;SDS011;51452;47.698;19.050;2023-10-19T05:55:05;26.57;;;16.50;;
64936;SDS011;51452;47.698;19.050;2023-10-19T05:57:31;25.70;;;15.17;;
64936;SDS011;51452;47.698;19.050;2023-10-19T05:59:56;24.97;;;15.33;;
64936;SDS011;51452;47.698;19.050;2023-10-19T06:02:21;28.63;;;16.60;;
64936;SDS011;51452;47.698;19.050;2023-10-19T06:04:47;29.83;;;17.23;;
64936;SDS011;51452;47.698;19.050;2023-10-19T06:07:12;27.73;;;15.60;;
64936;SDS011;51452;47.698;19.050;2023-10-19T06:09:38;24.53;;;16.60;;
64936;SDS011;51452;47.698;19.050;2023-10-19T06:12:03;25.93;;;15.70;;
64936;SDS011;51452;47.698;19.050;2023-10-19T06:14:29;26.20;;;15.37;;
64936;SDS011;51452;47.698;19.050;2023-10-19T06:16:55;25.03;;;15.93;;
64936;SDS011;51452;47.698;19.050;2023-10-19T06:19:21;22.20;;;14.73;;
64936;SDS011;51452;47.698;19.050;2023-10-19T06:21:47;25.00;;;15.43;;
64936;SDS011;51452;47.698;19.050;2023-10-19T06:24:15;24.87;;;15.20;;
64936;SDS011;51452;47.698;19.050;2023-10-19T06:26:41;23.90;;;14.90;;
64936;SDS011;51452;47.698;19.050;2023-10-19T06:29:07;22.53;;;14.53;;
64936;SDS011;51452;47.698;19.050;2023-10-19T06:31:33;23.87;;;15.40;;
64936;SDS011;51452;47.698;19.050;2023-10-19T06:33:58;24.00;;;14.37;;
64936;SDS011;51452;47.698;19.050;2023-10-19T06:36:25;22.67;;;14.37;;
64936;SDS011;51452;47.698;19.050;2023-10-19T06:38:50;24.33;;;14.97;;
64936;SDS011;51452;47.698;19.050;2023-10-19T06:41:16;25.47;;;15.17;;
64936;SDS011;51452;47.698;19.050;2023-10-19T06:43:43;20.20;;;13.93;;
64936;SDS011;51452;47.698;19.050;2023-10-19T06:46:09;24.83;;;14.30;;
64936;SDS011;51452;47.698;19.050;2023-10-19T06:48:36;25.53;;;15.07;;
64936;SDS011;51452;47.698;19.050;2023-10-19T06:51:02;24.53;;;14.83;;
64936;SDS011;51452;47.698;19.050;2023-10-19T06:53:27;26.47;;;15.17;;
64936;SDS011;51452;47.698;19.050;2023-10-19T06:55:53;30.63;;;14.40;;
64936;SDS011;51452;47.698;19.050;2023-10-19T06:58:20;23.00;;;13.67;;
64936;SDS011;51452;47.698;19.050;2023-10-19T07:00:46;21.53;;;13.27;;
64936;SDS011;51452;47.698;19.050;2023-10-19T07:03:21;22.13;;;14.40;;
64936;SDS011;51452;47.698;19.050;2023-10-19T07:05:47;21.87;;;14.00;;
64936;SDS011;51452;47.698;19.050;2023-10-19T07:08:14;24.20;;;15.03;;
64936;SDS011;51452;47.698;19.050;2023-10-19T07:10:40;23.33;;;14.10;;
64936;SDS011;51452;47.698;19.050;2023-10-19T07:13:06;19.73;;;12.53;;
64936;SDS011;51452;47.698;19.050;2023-10-19T07:15:31;20.87;;;12.57;;
64936;SDS011;51452;47.698;19.050;2023-10-19T07:17:56;19.60;;;12.93;;
64936;SDS011;51452;47.698;19.050;2023-10-19T07:20:23;18.92;;;12.25;;
64936;SDS011;51452;47.698;19.050;2023-10-19T07:23:01;24.27;;;13.20;;
64936;SDS011;51452;47.698;19.050;2023-10-19T07:25:35;18.77;;;12.67;;
64936;SDS011;51452;47.698;19.050;2023-10-19T07:28:08;19.67;;;12.13;;
64936;SDS011;51452;47.698;19.050;2023-10-19T07:30:34;20.20;;;12.47;;
64936;SDS011;51452;47.698;19.050;2023-10-19T07:33:00;19.87;;;12.13;;
64936;SDS011;51452;47.698;19.050;2023-10-19T07:35:26;18.57;;;11.77;;
64936;SDS011;51452;47.698;19.050;2023-10-19T07:37:52;20.75;;;11.90;;
64936;SDS011;51452;47.698;19.050;2023-10-19T07:40:19;20.93;;;13.13;;
64936;SDS011;51452;47.698;19.050;2023-10-19T07:42:45;23.37;;;13.73;;
64936;SDS011;51452;47.698;19.050;2023-10-19T07:45:11;20.20;;;12.60;;
64936;SDS011;51452;47.698;19.050;2023-10-19T07:47:40;23.77;;;13.20;;
64936;SDS011;51452;47.698;19.050;2023-10-19T07:50:09;23.73;;;13.48;;
64936;SDS011;51452;47.698;19.050;2023-10-19T07:52:41;20.92;;;12.98;;
64936;SDS011;51452;47.698;19.050;2023-10-19T07:55:11;19.53;;;12.80;;
64936;SDS011;51452;47.698;19.050;2023-10-19T07:57:37;20.40;;;13.67;;
64936;SDS011;51452;47.698;19.050;2023-10-19T08:00:03;23.13;;;12.93;;
64936;SDS011;51452;47.698;19.050;2023-10-19T08:02:29;20.70;;;13.05;;
64936;SDS011;51452;47.698;19.050;2023-10-19T08:04:55;19.45;;;13.07;;
64936;SDS011;51452;47.698;19.050;2023-10-19T08:07:21;20.92;;;13.23;;
64936;SDS011;51452;47.698;19.050;2023-10-19T08:09:47;22.83;;;14.60;;
64936;SDS011;51452;47.698;19.050;2023-10-19T08:12:13;21.67;;;13.30;;
64936;SDS011;51452;47.698;19.050;2023-10-19T08:14:38;20.53;;;13.07;;
64936;SDS011;51452;47.698;19.050;2023-10-19T08:17:04;20.85;;;13.93;;
64936;SDS011;51452;47.698;19.050;2023-10-19T08:19:30;19.55;;;13.07;;
64936;SDS011;51452;47.698;19.050;2023-10-19T08:21:58;25.88;;;15.27;;
64936;SDS011;51452;47.698;19.050;2023-10-19T08:24:23;25.07;;;15.43;;
64936;SDS011;51452;47.698;19.050;2023-10-19T08:26:48;23.38;;;14.50;;
64936;SDS011;51452;47.698;19.050;2023-10-19T08:29:15;22.83;;;14.70;;
64936;SDS011;51452;47.698;19.050;2023-10-19T08:31:42;23.10;;;15.10;;
64936;SDS011;51452;47.698;19.050;2023-10-19T08:34:09;21.83;;;14.38;;
64936;SDS011;51452;47.698;19.050;2023-10-19T08:36:36;21.27;;;13.77;;
64936;SDS011;51452;47.698;19.050;2023-10-19T08:39:03;25.27;;;15.55;;
64936;SDS011;51452;47.698;19.050;2023-10-19T08:41:34;23.70;;;15.00;;
64936;SDS011;51452;47.698;19.050;2023-10-19T08:44:03;23.80;;;14.50;;
64936;SDS011;51452;47.698;19.050;2023-10-19T08:46:35;25.10;;;14.13;;
64936;SDS011;51452;47.698;19.050;2023-10-19T08:49:13;21.60;;;13.45;;
64936;SDS011;51452;47.698;19.050;2023-10-19T08:51:44;20.95;;;13.57;;
64936;SDS011;51452;47.698;19.050;2023-10-19T08:54:11;21.40;;;13.57;;
64936;SDS011;51452;47.698;19.050;2023-10-19T08:56:40;22.55;;;14.65;;
64936;SDS011;51452;47.698;19.050;2023-10-19T08:59:06;23.48;;;14.90;;
64936;SDS011;51452;47.698;19.050;2023-10-19T09:01:32;20.77;;;13.85;;
64936;SDS011;51452;47.698;19.050;2023-10-19T09:04:00;22.75;;;14.00;;
64936;SDS011;51452;47.698;19.050;2023-10-19T09:06:26;21.83;;;14.00;;
64936;SDS011;51452;47.698;19.050;2023-10-19T09:08:54;23.23;;;14.80;;
64936;SDS011;51452;47.698;19.050;2023-10-19T09:11:20;24.85;;;15.32;;
64936;SDS011;51452;47.698;19.050;2023-10-19T09:13:52;23.90;;;15.32;;
64936;SDS011;51452;47.698;19.050;2023-10-19T09:16:18;26.02;;;15.88;;
64936;SDS011;51452;47.698;19.050;2023-10-19T09:18:49;22.38;;;15.25;;
64936;SDS011;51452;47.698;19.050;2023-10-19T09:21:16;27.05;;;16.25;;
64936;SDS011;51452;47.698;19.050;2023-10-19T09:23:49;24.98;;;15.68;;
64936;SDS011;51452;47.698;19.050;2023-10-19T09:26:15;25.10;;;15.77;;
64936;SDS011;51452;47.698;19.050;2023-10-19T09:28:42;26.25;;;16.25;;
64936;SDS011;51452;47.698;19.050;2023-10-19T09:31:12;25.95;;;16.05;;
64936;SDS011;51452;47.698;19.050;2023-10-19T09:33:39;24.33;;;14.70;;
64936;SDS011;51452;47.698;19.050;2023-10-19T09:36:06;26.67;;;16.63;;
64936;SDS011;51452;47.698;19.050;2023-10-19T09:38:38;26.98;;;16.15;;
64936;SDS011;51452;47.698;19.050;2023-10-19T09:41:11;28.60;;;16.55;;
64936;SDS011;51452;47.698;19.050;2023-10-19T09:43:41;25.95;;;15.00;;
64936;SDS011;51452;47.698;19.050;2023-10-19T09:46:10;27.75;;;16.20;;
64936;SDS011;51452;47.698;19.050;2023-10-19T09:48:41;30.17;;;16.55;;
64936;SDS011;51452;47.698;19.050;2023-10-19T09:51:07;27.13;;;17.15;;
64936;SDS011;51452;47.698;19.050;2023-10-19T09:53:34;27.13;;;16.33;;
64936;SDS011;51452;47.698;19.050;2023-10-19T09:56:02;26.13;;;16.48;;
64936;SDS011;51452;47.698;19.050;2023-10-19T09:58:34;25.27;;;16.17;;
64936;SDS011;51452;47.698;19.050;2023-10-19T10:01:05;24.95;;;15.85;;
64936;SDS011;51452;47.698;19.050;2023-10-19T10:06:30;27.02;;;15.73;;
64936;SDS011;51452;47.698;19.050;2023-10-19T10:09:19;28.58;;;17.20;;
64936;SDS011;51452;47.698;19.050;2023-10-19T10:11:48;28.48;;;17.73;;
64936;SDS011;51452;47.698;19.050;2023-10-19T10:14:24;25.27;;;16.45;;
64936;SDS011;51452;47.698;19.050;2023-10-19T10:17:02;27.33;;;16.45;;
64936;SDS011;51452;47.698;19.050;2023-10-19T10:19:30;28.35;;;17.50;;
64936;SDS011;51452;47.698;19.050;2023-10-19T10:22:08;28.38;;;17.75;;
64936;SDS011;51452;47.698;19.050;2023-10-19T10:24:42;27.10;;;16.67;;
64936;SDS011;51452;47.698;19.050;2023-10-19T10:27:08;27.88;;;17.00;;
64936;SDS011;51452;47.698;19.050;2023-10-19T10:29:35;31.63;;;18.10;;
64936;SDS011;51452;47.698;19.050;2023-10-19T10:32:01;28.23;;;18.67;;
64936;SDS011;51452;47.698;19.050;2023-10-19T10:37:08;30.50;;;18.55;;
64936;SDS011;51452;47.698;19.050;2023-10-19T10:39:39;27.60;;;18.40;;
64936;SDS011;51452;47.698;19.050;2023-10-19T10:42:06;30.60;;;18.55;;
64936;SDS011;51452;47.698;19.050;2023-10-19T10:44:42;27.65;;;17.00;;
64936;SDS011;51452;47.698;19.050;2023-10-19T10:49:56;29.60;;;18.48;;
64936;SDS011;51452;47.698;19.050;2023-10-19T10:52:29;31.23;;;18.60;;
64936;SDS011;51452;47.698;19.050;2023-10-19T10:55:12;29.10;;;18.85;;
64936;SDS011;51452;47.698;19.050;2023-10-19T10:57:40;31.45;;;18.98;;
64936;SDS011;51452;47.698;19.050;2023-10-19T11:00:07;34.47;;;18.60;;
64936;SDS011;51452;47.698;19.050;2023-10-19T11:02:40;27.37;;;16.93;;
64936;SDS011;51452;47.698;19.050;2023-10-19T11:05:14;29.17;;;18.13;;
64936;SDS011;51452;47.698;19.050;2023-10-19T11:08:02;28.05;;;17.85;;
64936;SDS011;51452;47.698;19.050;2023-10-19T11:10:32;28.70;;;18.15;;
64936;SDS011;51452;47.698;19.050;2023-10-19T11:13:11;30.67;;;19.25;;
64936;SDS011;51452;47.698;19.050;2023-10-19T11:21:09;26.15;;;17.75;;
64936;SDS011;51452;47.698;19.050;2023-10-19T11:26:04;34.00;;;20.58;;
64936;SDS011;51452;47.698;19.050;2023-10-19T11:28:33;32.97;;;19.42;;
64936;SDS011;51452;47.698;19.050;2023-10-19T11:31:15;32.63;;;19.85;;
64936;SDS011;51452;47.698;19.050;2023-10-19T11:33:41;33.20;;;19.48;;
64936;SDS011;51452;47.698;19.050;2023-10-19T11:36:08;29.42;;;18.52;;
64936;SDS011;51452;47.698;19.050;2023-10-19T11:38:34;31.42;;;19.50;;
64936;SDS011;51452;47.698;19.050;2023-10-19T11:41:00;32.80;;;20.52;;
64936;SDS011;51452;47.698;19.050;2023-10-19T11:43:28;30.20;;;19.05;;
64936;SDS011;51452;47.698;19.050;2023-10-19T11:45:53;31.75;;;20.80;;
64936;SDS011;51452;47.698;19.050;2023-10-19T11:48:18;33.42;;;20.73;;
64936;SDS011;51452;47.698;19.050;2023-10-19T11:50:45;34.63;;;20.38;;
64936;SDS011;51452;47.698;19.050;2023-10-19T11:53:10;33.42;;;21.10;;
64936;SDS011;51452;47.698;19.050;2023-10-19T11:55:35;33.42;;;19.98;;
64936;SDS011;51452;47.698;19.050;2023-10-19T11:58:01;30.40;;;19.63;;
64936;SDS011;51452;47.698;19.050;2023-10-19T12:00:26;31.00;;;19.02;;
64936;SDS011;51452;47.698;19.050;2023-10-19T12:02:59;31.08;;;19.92;;
64936;SDS011;51452;47.698;19.050;2023-10-19T12:05:24;33.83;;;20.40;;
64936;SDS011;51452;47.698;19.050;2023-10-19T12:07:50;30.85;;;19.33;;
64936;SDS011;51452;47.698;19.050;2023-10-19T12:10:17;31.90;;;18.67;;
64936;SDS011;51452;47.698;19.050;2023-10-19T12:12:45;32.35;;;20.33;;
64936;SDS011;51452;47.698;19.050;2023-10-19T12:15:10;30.90;;;19.63;;
64936;SDS011;51452;47.698;19.050;2023-10-19T12:17:37;34.50;;;20.80;;
64936;SDS011;51452;47.698;19.050;2023-10-19T12:20:02;32.08;;;20.10;;
64936;SDS011;51452;47.698;19.050;2023-10-19T12:22:31;34.08;;;19.50;;
64936;SDS011;51452;47.698;19.050;2023-10-19T12:25:01;29.63;;;18.75;;
64936;SDS011;51452;47.698;19.050;2023-10-19T12:27:27;30.73;;;19.13;;
64936;SDS011;51452;47.698;19.050;2023-10-19T12:29:53;32.30;;;19.38;;
64936;SDS011;51452;47.698;19.050;2023-10-19T12:32:19;29.23;;;18.58;;
64936;SDS011;51452;47.698;19.050;2023-10-19T12:34:44;29.73;;;19.13;;
64936;SDS011;51452;47.698;19.050;2023-10-19T12:37:10;31.20;;;20.05;;
64936;SDS011;51452;47.698;19.050;2023-10-19T12:39:37;29.40;;;19.00;;
64936;SDS011;51452;47.698;19.050;2023-10-19T12:42:08;29.30;;;18.90;;
64936;SDS011;51452;47.698;19.050;2023-10-19T12:44:34;28.50;;;19.17;;
64936;SDS011;51452;47.698;19.050;2023-10-19T12:47:06;31.23;;;19.77;;
64936;SDS011;51452;47.698;19.050;2023-10-19T12:49:38;31.50;;;19.75;;
64936;SDS011;51452;47.698;19.050;2023-10-19T12:52:04;29.40;;;18.75;;
64936;SDS011;51452;47.698;19.050;2023-10-19T12:54:32;29.52;;;19.42;;
64936;SDS011;51452;47.698;19.050;2023-10-19T12:56:59;29.15;;;19.73;;
64936;SDS011;51452;47.698;19.050;2023-10-19T12:59:25;30.50;;;20.05;;
64936;SDS011;51452;47.698;19.050;2023-10-19T13:01:50;32.15;;;20.20;;
64936;SDS011;51452;47.698;19.050;2023-10-19T13:04:20;31.27;;;19.05;;
64936;SDS011;51452;47.698;19.050;2023-10-19T13:06:48;32.67;;;20.10;;
64936;SDS011;51452;47.698;19.050;2023-10-19T13:09:14;33.42;;;20.83;;
64936;SDS011;51452;47.698;19.050;2023-10-19T13:11:41;34.75;;;22.52;;
64936;SDS011;51452;47.698;19.050;2023-10-19T13:14:08;35.40;;;21.95;;
64936;SDS011;51452;47.698;19.050;2023-10-19T13:16:35;31.42;;;20.50;;
64936;SDS011;51452;47.698;19.050;2023-10-19T13:19:00;30.23;;;19.38;;
64936;SDS011;51452;47.698;19.050;2023-10-19T13:21:34;30.23;;;19.95;;
64936;SDS011;51452;47.698;19.050;2023-10-19T13:23:59;35.75;;;21.00;;
64936;SDS011;51452;47.698;19.050;2023-10-19T13:26:26;29.55;;;19.20;;
64936;SDS011;51452;47.698;19.050;2023-10-19T13:28:52;28.83;;;19.58;;
64936;SDS011;51452;47.698;19.050;2023-10-19T13:31:17;26.70;;;18.52;;
64936;SDS011;51452;47.698;19.050;2023-10-19T13:33:44;30.58;;;18.75;;
64936;SDS011;51452;47.698;19.050;2023-10-19T13:36:11;26.35;;;18.30;;
64936;SDS011;51452;47.698;19.050;2023-10-19T13:38:37;28.05;;;18.73;;
64936;SDS011;51452;47.698;19.050;2023-10-19T13:41:06;26.58;;;18.45;;
64936;SDS011;51452;47.698;19.050;2023-10-19T13:43:35;27.08;;;18.17;;
64936;SDS011;51452;47.698;19.050;2023-10-19T13:46:01;26.70;;;17.13;;
64936;SDS011;51452;47.698;19.050;2023-10-19T13:48:26;26.60;;;18.08;;
64936;SDS011;51452;47.698;19.050;2023-10-19T13:50:52;25.73;;;17.85;;
64936;SDS011;51452;47.698;19.050;2023-10-19T13:53:25;25.77;;;17.40;;
64936;SDS011;51452;47.698;19.050;2023-10-19T13:55:53;26.48;;;16.25;;
64936;SDS011;51452;47.698;19.050;2023-10-19T13:58:18;26.23;;;17.33;;
64936;SDS011;51452;47.698;19.050;2023-10-19T14:00:44;24.98;;;16.98;;
64936;SDS011;51452;47.698;19.050;2023-10-19T14:03:10;26.45;;;18.15;;
64936;SDS011;51452;47.698;19.050;2023-10-19T14:05:39;24.50;;;16.75;;
64936;SDS011;51452;47.698;19.050;2023-10-19T14:08:07;28.02;;;18.45;;
64936;SDS011;51452;47.698;19.050;2023-10-19T14:10:34;25.17;;;17.65;;
64936;SDS011;51452;47.698;19.050;2023-10-19T14:12:59;24.75;;;16.70;;
64936;SDS011;51452;47.698;19.050;2023-10-19T14:15:25;24.77;;;16.75;;
64936;SDS011;51452;47.698;19.050;2023-10-19T14:17:54;26.67;;;17.77;;
64936;SDS011;51452;47.698;19.050;2023-10-19T14:20:23;25.40;;;16.70;;
64936;SDS011;51452;47.698;19.050;2023-10-19T14:22:49;24.92;;;16.05;;
64936;SDS011;51452;47.698;19.050;2023-10-19T14:25:14;24.02;;;16.80;;
64936;SDS011;51452;47.698;19.050;2023-10-19T14:27:40;26.02;;;18.42;;
64936;SDS011;51452;47.698;19.050;2023-10-19T14:30:10;25.90;;;18.23;;
64936;SDS011;51452;47.698;19.050;2023-10-19T14:32:44;28.40;;;18.85;;
64936;SDS011;51452;47.698;19.050;2023-10-19T14:35:15;29.08;;;19.08;;